createdAt,value
2022-08-20T00:01:42.123Z,5.75
2022-08-20T00:04:34.089Z,5.50
2022-08-20T00:07:25.217Z,5.85
2022-08-20T00:10:17.278Z,5.72
2022-08-20T00:13:13.996Z,5.53
2022-08-20T00:16:05.578Z,5.28
2022-08-20T00:18:57.068Z,5.97
2022-08-20T00:21:48.508Z,5.70
2022-08-20T00:24:42.673Z,5.55
2022-08-20T00:27:34.334Z,5.87
2022-08-20T00:33:07.670Z,5.50
2022-08-20T00:35:59.435Z,5.78
2022-08-20T00:38:50.851Z,5.28
2022-08-20T00:41:41.923Z,5.28
2022-08-20T00:44:33.308Z,5.92
2022-08-20T00:50:05.898Z,6.00
2022-08-20T00:52:58.553Z,5.58
2022-08-20T00:55:50.067Z,5.97
2022-08-20T00:58:44.918Z,5.60
2022-08-20T01:01:41.995Z,5.60
2022-08-20T01:04:33.802Z,5.92
2022-08-20T01:07:28.717Z,5.22
2022-08-20T01:13:04.266Z,5.67
2022-08-20T01:15:57.287Z,5.55
2022-08-20T01:18:49.245Z,6.17
2022-08-20T01:24:23.158Z,6.10
2022-08-20T01:27:14.980Z,5.95
2022-08-20T01:30:09.269Z,5.53
2022-08-20T01:33:00.485Z,6.17
2022-08-20T01:35:56.863Z,5.70
2022-08-20T01:38:54.103Z,6.05
2022-08-20T01:41:53.013Z,6.22
2022-08-20T01:44:47.426Z,5.33
2022-08-20T01:47:45.258Z,5.67
2022-08-20T01:50:41.101Z,5.95
2022-08-20T01:53:35.088Z,5.30
2022-08-20T01:56:29.458Z,5.53
2022-08-20T01:59:21.012Z,5.28
2022-08-20T02:02:13.940Z,5.10
2022-08-20T02:05:05.359Z,4.67
2022-08-20T02:07:57.054Z,5.05
2022-08-20T02:13:27.394Z,4.87
2022-08-20T02:16:18.544Z,4.97
2022-08-20T02:21:55.960Z,5.10
2022-08-20T02:24:47.979Z,5.47
2022-08-20T02:30:27.931Z,5.55
2022-08-20T02:33:20.802Z,5.40
2022-08-20T02:38:52.739Z,5.62
2022-08-20T02:41:44.176Z,5.40
2022-08-20T02:44:36.013Z,6.40
2022-08-20T02:47:27.812Z,5.37
2022-08-20T02:58:18.763Z,5.95
2022-08-20T03:01:12.604Z,5.60
2022-08-20T03:04:04.330Z,5.05
2022-08-20T03:06:55.536Z,5.45
2022-08-20T03:09:46.957Z,5.87
2022-08-20T03:12:38.598Z,6.12
2022-08-20T03:15:30.435Z,5.72
2022-08-20T03:18:23.094Z,5.80
2022-08-20T03:21:15.623Z,5.45
2022-08-20T03:24:07.669Z,5.90
2022-08-20T03:26:58.777Z,5.37
2022-08-20T03:29:50.653Z,6.90
2022-08-20T03:35:28.767Z,5.65
2022-08-20T03:38:26.330Z,5.67
2022-08-20T03:41:14.760Z,4.90
2022-08-20T03:44:07.031Z,5.20
2022-08-20T03:46:58.427Z,5.92
2022-08-20T03:49:49.878Z,5.42
2022-08-20T03:52:41.270Z,5.60
2022-08-20T03:55:33.518Z,5.75
2022-08-20T03:58:33.296Z,5.47
2022-08-20T04:01:36.731Z,5.90
2022-08-20T04:04:12.569Z,5.80
2022-08-20T04:07:10.566Z,5.87
2022-08-20T04:10:03.684Z,5.85
2022-08-20T04:12:54.961Z,5.50
2022-08-20T04:15:47.172Z,5.62
2022-08-20T04:18:39.923Z,5.47
2022-08-20T04:21:33.038Z,5.50
2022-08-20T04:24:31.876Z,5.85
2022-08-20T04:27:17.179Z,5.87
2022-08-20T04:30:12.186Z,5.90
2022-08-20T04:33:03.682Z,6.00
2022-08-20T04:35:56.126Z,5.58
2022-08-20T04:38:48.502Z,5.90
2022-08-20T04:41:40.720Z,5.55
2022-08-20T04:44:31.830Z,5.47
2022-08-20T04:47:34.347Z,5.67
2022-08-20T04:50:16.261Z,5.55
2022-08-20T04:53:12.299Z,5.22
2022-08-20T04:58:44.708Z,5.33
2022-08-20T05:01:36.184Z,5.50
2022-08-20T05:04:27.690Z,5.47
2022-08-20T05:10:00.790Z,5.47
2022-08-20T05:12:56.892Z,5.92
2022-08-20T05:15:46.608Z,6.30
2022-08-20T05:18:38.237Z,6.20
2022-08-20T05:21:29.872Z,6.15
2022-08-20T05:24:23.602Z,5.42
2022-08-20T05:27:24.924Z,6.08
2022-08-20T05:32:58.317Z,6.58
2022-08-20T05:35:54.780Z,5.70
2022-08-20T05:41:28.797Z,5.53
2022-08-20T05:47:04.146Z,5.50
2022-08-20T05:49:55.466Z,5.60
2022-08-20T05:52:47.060Z,5.05
2022-08-20T05:58:20.968Z,5.50
2022-08-20T06:01:12.269Z,5.40
2022-08-20T06:04:22.039Z,5.33
2022-08-20T06:07:13.549Z,5.95
2022-08-20T06:10:05.662Z,5.47
2022-08-20T06:15:42.575Z,4.78
2022-08-20T06:21:13.806Z,4.55
2022-08-20T06:24:06.982Z,4.45
2022-08-20T06:27:00.022Z,4.85
2022-08-20T06:32:33.876Z,4.60
2022-08-20T06:38:04.115Z,4.85
2022-08-20T06:40:55.338Z,4.33
2022-08-20T06:43:46.728Z,4.30
2022-08-20T06:46:38.534Z,4.60
2022-08-20T06:49:35.209Z,4.10
2022-08-20T06:52:37.762Z,4.60
2022-08-20T06:55:17.073Z,4.40
2022-08-20T07:00:53.975Z,4.30
2022-08-20T07:03:59.838Z,4.53
2022-08-20T07:06:52.395Z,5.03
2022-08-20T07:09:44.186Z,5.40
2022-08-20T07:15:17.204Z,5.15
2022-08-20T07:18:09.225Z,4.90
2022-08-20T07:23:53.433Z,4.87
2022-08-20T07:26:46.373Z,4.58
2022-08-20T07:29:56.765Z,4.83
2022-08-20T07:32:49.113Z,4.28
2022-08-20T07:35:41.140Z,4.33
2022-08-20T07:38:35.603Z,4.42
2022-08-20T07:44:35.999Z,4.22
2022-08-20T07:54:39.690Z,4.80
2022-08-20T07:57:31.907Z,4.90
2022-08-20T08:03:02.470Z,4.47
2022-08-20T08:09:09.111Z,4.12
2022-08-20T08:12:09.253Z,4.50
2022-08-20T08:15:00.720Z,4.58
2022-08-20T08:17:53.678Z,4.83
2022-08-20T08:20:46.661Z,5.00
2022-08-20T08:23:38.674Z,5.40
2022-08-20T08:29:09.943Z,4.62
2022-08-20T08:32:03.712Z,4.60
2022-08-20T08:37:47.994Z,5.45
2022-08-20T08:40:42.205Z,5.87
2022-08-20T08:46:54.393Z,5.12
2022-08-20T08:52:46.783Z,3.90
2022-08-20T08:59:48.581Z,4.65
2022-08-20T09:02:33.994Z,4.95
2022-08-20T09:08:14.963Z,5.20
2022-08-20T09:11:07.101Z,5.28
2022-08-20T09:14:02.585Z,5.10
2022-08-20T09:20:07.896Z,5.25
2022-08-20T09:39:07.049Z,5.40
2022-08-20T09:42:11.186Z,5.37
2022-08-20T09:45:04.156Z,4.87
2022-08-20T09:47:58.168Z,4.72
2022-08-20T09:53:40.771Z,4.20
2022-08-20T09:59:29.108Z,4.08
2022-08-20T10:02:25.143Z,4.37
2022-08-20T10:08:32.258Z,5.12
2022-08-20T10:11:23.952Z,4.37
2022-08-20T10:14:17.750Z,4.78
2022-08-20T10:17:22.919Z,4.97
2022-08-20T10:20:19.978Z,4.22
2022-08-20T10:23:12.171Z,4.42
2022-08-20T10:26:04.371Z,4.30
2022-08-20T10:29:15.820Z,4.17
2022-08-20T10:32:16.351Z,4.17
2022-08-20T10:35:17.990Z,3.77
2022-08-20T10:38:18.721Z,3.70
2022-08-20T10:44:02.373Z,1.50
2022-08-20T10:46:56.167Z,0.70
2022-08-20T10:49:48.009Z,0.50
2022-08-20T10:52:39.856Z,0.60
2022-08-20T10:58:23.798Z,0.30
2022-08-20T11:01:28.732Z,0.30
2022-08-20T11:04:14.660Z,0.20
2022-08-20T11:07:20.069Z,0.30
2022-08-20T11:12:55.868Z,0.30
2022-08-20T11:15:56.920Z,0.40
2022-08-20T11:18:48.441Z,0.50
2022-08-20T11:24:21.287Z,0.30
2022-08-20T11:27:15.206Z,0.30
2022-08-20T11:30:10.042Z,0.50
2022-08-20T11:33:02.897Z,0.40
2022-08-20T11:38:34.672Z,0.55
2022-08-20T11:41:26.312Z,0.50
2022-08-20T11:44:20.190Z,0.40
2022-08-20T11:50:01.919Z,0.30
2022-08-20T11:55:39.652Z,0.30
2022-08-20T11:58:33.047Z,0.40
2022-08-20T12:01:32.848Z,0.40
2022-08-20T12:04:25.193Z,0.30
2022-08-20T12:07:20.008Z,0.60
2022-08-20T12:10:14.293Z,0.40
2022-08-20T12:13:06.122Z,0.62
2022-08-20T12:15:58.191Z,0.40
2022-08-20T12:18:52.343Z,0.42
2022-08-20T12:21:43.868Z,0.42
2022-08-20T12:24:36.760Z,0.55
2022-08-20T12:27:29.908Z,0.42
2022-08-20T12:30:30.003Z,0.50
2022-08-20T12:36:07.362Z,0.50
2022-08-20T12:38:58.734Z,0.50
2022-08-20T12:44:34.111Z,0.80
2022-08-20T12:47:28.404Z,0.80
2022-08-20T12:50:22.393Z,0.50
2022-08-20T12:53:13.628Z,0.50
2022-08-20T12:58:46.088Z,0.40
2022-08-20T13:01:37.348Z,0.40
2022-08-20T13:04:29.486Z,0.50
2022-08-20T13:10:01.234Z,0.40
2022-08-20T13:12:52.642Z,0.42
2022-08-20T13:18:23.327Z,0.40
2022-08-20T13:21:14.408Z,0.50
2022-08-20T13:24:06.448Z,0.45
2022-08-20T13:27:06.137Z,0.53
2022-08-20T13:29:59.302Z,0.40
2022-08-20T13:38:09.860Z,0.40
2022-08-20T13:43:41.974Z,0.40
2022-08-20T13:46:33.599Z,0.23
2022-08-20T13:49:25.293Z,0.30
2022-08-20T13:52:18.056Z,0.40
2022-08-20T13:55:13.442Z,0.30
2022-08-20T13:58:08.809Z,0.30
2022-08-20T14:01:00.202Z,0.33
2022-08-20T14:03:56.860Z,0.50
2022-08-20T14:06:57.860Z,0.40
2022-08-20T14:09:51.690Z,0.50
2022-08-20T14:12:43.022Z,0.50
2022-08-20T14:18:12.969Z,0.37
2022-08-20T14:24:08.295Z,0.30
2022-08-20T14:29:41.475Z,0.45
2022-08-20T14:32:32.737Z,0.40
2022-08-20T14:35:24.995Z,0.30
2022-08-20T14:38:28.569Z,0.30
2022-08-20T14:44:00.810Z,0.50
2022-08-20T14:46:53.338Z,0.37
2022-08-20T14:49:45.783Z,0.30
2022-08-20T14:52:37.398Z,0.55
2022-08-20T14:58:10.524Z,0.30
2022-08-20T15:03:51.696Z,0.30
2022-08-20T15:09:24.958Z,0.40
2022-08-20T15:12:16.234Z,0.30
2022-08-20T15:15:15.202Z,0.35
2022-08-20T15:18:05.572Z,0.30
2022-08-20T15:23:53.777Z,0.30
2022-08-20T15:29:28.933Z,0.40
2022-08-20T15:32:21.238Z,0.30
2022-08-20T15:35:13.442Z,0.25
2022-08-20T15:38:04.864Z,0.30
2022-08-20T15:40:58.326Z,0.40
2022-08-20T15:43:49.674Z,0.30
2022-08-20T15:46:41.374Z,0.30
2022-08-20T15:49:32.824Z,0.30
2022-08-20T15:52:24.844Z,0.42
2022-08-20T15:55:17.844Z,0.35
2022-08-20T15:58:15.166Z,0.30
2022-08-20T16:01:25.316Z,0.30
2022-08-20T16:07:53.167Z,0.30
2022-08-20T16:10:49.851Z,0.30
2022-08-20T16:13:44.137Z,0.28
2022-08-20T16:19:21.875Z,0.30
2022-08-20T16:22:19.136Z,0.30
2022-08-20T16:25:11.556Z,0.20
2022-08-20T16:28:23.859Z,0.30
2022-08-20T16:34:23.426Z,0.30
2022-08-20T16:37:14.475Z,0.30
2022-08-20T16:40:11.938Z,0.40
2022-08-20T16:43:06.524Z,0.40
2022-08-20T16:48:50.187Z,0.33
2022-08-20T16:51:49.468Z,0.33
2022-08-20T16:54:37.470Z,0.40
2022-08-20T17:00:23.612Z,0.30
2022-08-20T17:06:24.458Z,0.40
2022-08-20T17:09:20.991Z,0.40
2022-08-20T17:12:19.383Z,0.30
2022-08-20T17:15:25.059Z,0.40
2022-08-20T17:21:08.307Z,0.50
2022-08-20T17:24:02.635Z,0.40
2022-08-20T17:27:02.929Z,0.20
2022-08-20T17:29:57.895Z,0.40
2022-08-20T17:38:35.740Z,0.30
2022-08-20T17:44:22.074Z,0.40
2022-08-20T17:47:16.176Z,0.50
2022-08-20T17:50:12.289Z,0.30
2022-08-20T17:53:08.470Z,0.35
2022-08-20T17:56:03.127Z,0.30
2022-08-20T17:59:03.465Z,0.20
2022-08-20T18:01:59.810Z,0.30
2022-08-20T18:04:52.731Z,0.30
2022-08-20T18:08:03.004Z,0.33
2022-08-20T18:39:33.839Z,0.40
2022-08-20T18:45:15.305Z,0.20
2022-08-20T18:48:08.495Z,0.45
2022-08-20T18:57:55.276Z,0.20
2022-08-20T19:03:32.767Z,0.20
2022-08-20T19:06:32.626Z,0.28
2022-08-20T19:09:41.119Z,0.20
2022-08-20T19:15:24.420Z,0.30
2022-08-20T19:18:18.757Z,0.20
2022-08-20T19:21:15.908Z,0.20
2022-08-20T19:24:13.818Z,0.10
2022-08-20T19:27:08.471Z,0.20
2022-08-20T19:29:59.908Z,0.20
2022-08-20T19:32:54.913Z,0.20
2022-08-20T19:38:27.036Z,0.25
2022-08-20T19:41:31.154Z,0.25
2022-08-20T19:44:29.026Z,0.50
2022-08-20T19:47:22.187Z,0.30
2022-08-20T19:50:20.729Z,0.50
2022-08-20T19:56:12.321Z,0.40
2022-08-20T19:59:06.009Z,0.30
2022-08-20T20:02:01.560Z,0.50
2022-08-20T20:04:55.709Z,0.25
2022-08-20T20:07:48.263Z,0.30
2022-08-20T20:10:49.718Z,0.28
2022-08-20T20:13:51.520Z,0.50
2022-08-20T20:16:43.774Z,0.35
2022-08-20T20:19:47.813Z,0.40
2022-08-20T20:28:28.338Z,0.30
2022-08-20T20:34:03.705Z,0.37
2022-08-20T20:37:05.888Z,0.30
2022-08-20T20:40:07.224Z,0.40
2022-08-20T20:43:05.546Z,0.50
2022-08-20T20:48:52.675Z,0.30
2022-08-20T20:52:15.057Z,0.30
2022-08-20T20:55:16.021Z,0.40
2022-08-20T20:58:09.914Z,0.30
2022-08-20T21:01:20.207Z,0.30
2022-08-20T21:06:55.883Z,0.50
2022-08-20T21:09:47.676Z,0.40
2022-08-20T21:12:38.994Z,0.60
2022-08-20T21:15:31.229Z,0.30
2022-08-20T21:18:26.529Z,0.30
2022-08-20T21:23:54.879Z,0.20
2022-08-20T21:29:32.138Z,0.60
2022-08-20T21:35:05.897Z,0.42
2022-08-20T21:40:39.537Z,0.30
2022-08-20T21:43:33.408Z,0.40
2022-08-20T21:46:28.277Z,0.45
2022-08-20T21:52:02.994Z,0.40
2022-08-20T21:54:54.325Z,0.30
2022-08-20T22:03:36.254Z,0.85
2022-08-20T22:09:09.358Z,0.90
2022-08-20T22:14:42.278Z,0.80
2022-08-20T22:17:35.002Z,0.40
2022-08-20T22:20:33.178Z,0.80
2022-08-20T22:23:25.021Z,0.70
2022-08-20T22:28:58.157Z,0.33
2022-08-20T22:31:53.710Z,0.40
2022-08-20T22:34:45.268Z,0.30
2022-08-20T22:37:36.729Z,0.30
2022-08-20T22:40:28.719Z,0.30
2022-08-20T22:43:21.422Z,0.30
2022-08-20T22:48:55.599Z,0.30
2022-08-20T22:54:26.599Z,0.20
2022-08-20T22:57:20.301Z,0.30
2022-08-20T23:02:57.228Z,0.40
2022-08-20T23:05:49.563Z,0.35
2022-08-20T23:14:03.122Z,0.30
2022-08-20T23:16:59.012Z,0.40
2022-08-20T23:19:51.807Z,0.35
2022-08-20T23:22:42.829Z,0.40
2022-08-20T23:25:34.893Z,0.30
2022-08-20T23:28:27.689Z,0.28
2022-08-20T23:31:19.209Z,0.40
2022-08-20T23:34:10.851Z,0.28
2022-08-20T23:37:04.770Z,0.30
2022-08-20T23:39:56.428Z,0.30
2022-08-20T23:42:47.945Z,0.60
2022-08-20T23:48:21.102Z,0.62
2022-08-20T23:51:12.412Z,0.50
2022-08-20T23:54:04.485Z,0.50
2022-08-20T23:57:08.383Z,0.20
2022-08-20T23:59:55.815Z,0.35
